createdAt,value
2018-10-02T00:01:37.077Z,2.20
2018-10-02T00:04:06.324Z,1.93
2018-10-02T00:06:34.937Z,2.07
2018-10-02T00:09:03.665Z,2.20
2018-10-02T00:11:37.481Z,2.20
2018-10-02T00:14:11.287Z,2.05
2018-10-02T00:16:40.225Z,1.90
2018-10-02T00:19:08.871Z,1.70
2018-10-02T00:21:37.367Z,1.57
2018-10-02T00:24:06.185Z,2.10
2018-10-02T00:26:35.014Z,1.90
2018-10-02T00:29:03.465Z,1.80
2018-10-02T00:31:31.811Z,1.75
2018-10-02T00:34:00.699Z,2.00
2018-10-02T00:36:29.020Z,1.83
2018-10-02T00:38:57.605Z,2.10
2018-10-02T00:41:26.492Z,2.17
2018-10-02T00:43:54.797Z,1.95
2018-10-02T00:46:23.209Z,1.67
2018-10-02T00:48:51.568Z,1.97
2018-10-02T00:51:20.312Z,1.80
2018-10-02T00:53:48.654Z,1.70
2018-10-02T00:56:17.216Z,1.70
2018-10-02T00:58:45.544Z,1.90
2018-10-02T01:01:13.958Z,2.10
2018-10-02T01:03:42.544Z,2.07
2018-10-02T01:06:10.930Z,1.95
2018-10-02T01:08:39.306Z,1.90
2018-10-02T01:11:07.708Z,1.80
2018-10-02T01:13:36.566Z,1.60
2018-10-02T01:16:04.930Z,2.00
2018-10-02T01:18:33.698Z,1.60
2018-10-02T01:21:02.020Z,1.37
2018-10-02T01:23:30.590Z,1.70
2018-10-02T01:25:59.038Z,1.80
2018-10-02T01:28:27.481Z,1.60
2018-10-02T01:30:55.931Z,1.80
2018-10-02T01:33:24.870Z,1.47
2018-10-02T01:35:53.316Z,1.80
2018-10-02T01:38:21.817Z,1.95
2018-10-02T01:40:50.155Z,1.35
2018-10-02T01:43:18.499Z,1.63
2018-10-02T01:45:46.950Z,1.55
2018-10-02T01:48:15.305Z,1.10
2018-10-02T01:50:43.679Z,1.60
2018-10-02T01:53:12.013Z,1.32
2018-10-02T01:55:40.359Z,1.53
2018-10-02T01:58:08.697Z,1.33
2018-10-02T02:00:37.595Z,1.60
2018-10-02T02:03:06.043Z,1.63
2018-10-02T02:05:34.381Z,1.47
2018-10-02T02:08:02.663Z,1.60
2018-10-02T02:10:31.033Z,1.50
2018-10-02T02:12:59.479Z,1.57
2018-10-02T02:15:27.805Z,1.60
2018-10-02T02:17:57.741Z,1.52
2018-10-02T02:20:26.174Z,1.50
2018-10-02T02:22:54.825Z,1.60
2018-10-02T02:25:23.255Z,1.70
2018-10-02T02:27:52.074Z,1.42
2018-10-02T02:30:20.497Z,1.67
2018-10-02T02:32:48.885Z,1.50
2018-10-02T02:35:18.019Z,1.20
2018-10-02T02:37:46.659Z,1.30
2018-10-02T02:40:15.091Z,1.70
2018-10-02T02:42:43.799Z,1.67
2018-10-02T02:45:12.165Z,1.50
2018-10-02T02:47:46.089Z,1.27
2018-10-02T02:50:20.077Z,1.37
2018-10-02T02:52:51.117Z,1.20
2018-10-02T02:55:20.979Z,1.50
2018-10-02T02:57:50.313Z,1.35
2018-10-02T03:00:19.338Z,1.62
2018-10-02T03:02:48.286Z,1.47
2018-10-02T03:05:16.653Z,1.30
2018-10-02T03:07:45.125Z,1.20
2018-10-02T03:10:13.549Z,1.60
2018-10-02T03:12:42.096Z,1.20
2018-10-02T03:15:10.738Z,1.47
2018-10-02T03:17:39.381Z,1.50
2018-10-02T03:20:07.738Z,1.50
2018-10-02T03:22:36.191Z,1.50
2018-10-02T03:25:04.699Z,1.20
2018-10-02T03:27:33.354Z,1.60
2018-10-02T03:30:02.014Z,1.10
2018-10-02T03:32:30.622Z,1.40
2018-10-02T03:34:59.335Z,1.30
2018-10-02T03:37:27.748Z,1.57
2018-10-02T03:39:56.270Z,1.40
2018-10-02T03:42:24.670Z,1.60
2018-10-02T03:44:53.044Z,1.37
2018-10-02T03:47:22.418Z,1.67
2018-10-02T03:49:50.822Z,1.35
2018-10-02T03:52:19.255Z,1.30
2018-10-02T03:54:47.767Z,1.40
2018-10-02T03:57:16.146Z,1.23
2018-10-02T03:59:44.540Z,1.50
2018-10-02T04:02:19.667Z,1.60
2018-10-02T04:04:48.258Z,1.27
2018-10-02T04:07:16.670Z,1.43
2018-10-02T04:09:45.010Z,1.30
2018-10-02T04:12:13.776Z,1.20
2018-10-02T04:14:42.410Z,1.20
2018-10-02T04:17:11.046Z,1.37
2018-10-02T04:19:39.866Z,1.37
2018-10-02T04:22:08.468Z,1.37
2018-10-02T04:24:36.777Z,1.70
2018-10-02T04:27:05.608Z,1.40
2018-10-02T04:29:33.973Z,1.60
2018-10-02T04:32:02.461Z,1.00
2018-10-02T04:34:32.339Z,1.37
2018-10-02T04:37:00.965Z,1.30
2018-10-02T04:39:29.381Z,1.23
2018-10-02T04:41:57.845Z,1.60
2018-10-02T04:44:26.231Z,1.50
2018-10-02T04:46:54.614Z,1.15
2018-10-02T04:49:23.249Z,1.60
2018-10-02T04:51:51.633Z,1.60
2018-10-02T04:54:20.663Z,1.63
2018-10-02T04:56:49.095Z,1.20
2018-10-02T04:59:17.476Z,1.70
2018-10-02T05:01:46.069Z,1.90
2018-10-02T05:04:14.433Z,1.67
2018-10-02T05:06:42.927Z,1.50
2018-10-02T05:09:11.611Z,2.02
2018-10-02T05:11:40.110Z,1.70
2018-10-02T05:14:08.472Z,1.70
2018-10-02T05:16:36.791Z,1.90
2018-10-02T05:19:05.237Z,1.75
2018-10-02T05:21:34.209Z,1.90
2018-10-02T05:24:02.677Z,1.90
2018-10-02T05:26:31.067Z,2.10
2018-10-02T05:28:59.414Z,1.90
2018-10-02T05:31:27.726Z,1.97
2018-10-02T05:33:56.137Z,2.00
2018-10-02T05:36:24.489Z,2.23
2018-10-02T05:38:52.867Z,1.80
2018-10-02T05:41:21.308Z,1.93
2018-10-02T05:43:49.719Z,2.37
2018-10-02T05:46:18.113Z,1.75
2018-10-02T05:48:46.493Z,1.95
2018-10-02T05:51:15.753Z,2.10
2018-10-02T05:53:44.772Z,2.30
2018-10-02T05:56:13.089Z,2.10
2018-10-02T05:58:42.027Z,2.03
2018-10-02T06:01:11.259Z,2.03
2018-10-02T06:03:39.668Z,2.00
2018-10-02T06:06:08.154Z,1.90
2018-10-02T06:08:37.053Z,2.33
2018-10-02T06:11:05.705Z,1.80
2018-10-02T06:13:34.048Z,1.90
2018-10-02T06:16:02.400Z,1.85
2018-10-02T06:18:30.810Z,2.20
2018-10-02T06:20:59.159Z,1.80
2018-10-02T06:23:27.512Z,2.02
2018-10-02T06:25:56.439Z,2.20
2018-10-02T06:28:24.841Z,2.10
2018-10-02T06:30:53.308Z,1.70
2018-10-02T06:33:21.754Z,2.03
2018-10-02T06:35:50.192Z,1.80
2018-10-02T06:38:18.645Z,1.70
2018-10-02T06:40:47.112Z,1.65
2018-10-02T06:43:15.497Z,1.90
2018-10-02T06:45:43.912Z,2.13
2018-10-02T06:48:12.266Z,2.05
2018-10-02T06:50:40.645Z,2.13
2018-10-02T06:53:08.980Z,2.27
2018-10-02T06:55:37.342Z,1.70
2018-10-02T06:58:05.975Z,1.90
2018-10-02T07:00:34.406Z,2.17
2018-10-02T07:03:02.957Z,1.90
2018-10-02T07:05:31.295Z,2.00
2018-10-02T07:07:59.636Z,1.83
2018-10-02T07:10:28.017Z,1.80
2018-10-02T07:12:56.365Z,2.00
2018-10-02T07:15:24.680Z,2.02
2018-10-02T07:17:53.147Z,1.83
2018-10-02T07:20:21.595Z,1.60
2018-10-02T07:22:50.886Z,1.90
2018-10-02T07:25:19.243Z,1.77
2018-10-02T07:27:47.768Z,1.80
2018-10-02T07:30:16.019Z,1.87
2018-10-02T07:32:44.491Z,1.97
2018-10-02T07:35:12.867Z,1.70
2018-10-02T07:37:41.315Z,1.83
2018-10-02T07:40:09.782Z,1.57
2018-10-02T07:42:38.272Z,2.47
2018-10-02T07:45:06.881Z,1.77
2018-10-02T07:47:35.165Z,2.10
2018-10-02T07:50:03.563Z,1.87
2018-10-02T07:52:31.877Z,1.83
2018-10-02T07:55:00.235Z,1.80
2018-10-02T07:57:28.648Z,1.70
2018-10-02T07:59:57.055Z,2.02
2018-10-02T08:02:25.388Z,1.90
2018-10-02T08:04:54.016Z,1.75
2018-10-02T08:07:22.311Z,1.87
2018-10-02T08:09:50.850Z,1.60
2018-10-02T08:12:19.367Z,1.87
2018-10-02T08:14:47.837Z,1.65
2018-10-02T08:17:16.464Z,1.42
2018-10-02T08:19:45.681Z,1.92
2018-10-02T08:22:14.087Z,1.63
2018-10-02T08:24:42.493Z,1.53
2018-10-02T08:27:10.982Z,1.57
2018-10-02T08:29:39.325Z,1.37
2018-10-02T08:32:08.238Z,1.85
2018-10-02T08:34:36.573Z,1.40
2018-10-02T08:37:04.893Z,1.50
2018-10-02T08:39:33.920Z,1.60
2018-10-02T08:42:02.310Z,1.60
2018-10-02T08:44:30.633Z,1.67
2018-10-02T08:46:59.034Z,1.32
2018-10-02T08:49:27.586Z,1.70
2018-10-02T08:51:56.567Z,1.60
2018-10-02T08:54:24.901Z,1.57
2018-10-02T08:56:53.393Z,1.45
2018-10-02T08:59:21.815Z,1.60
2018-10-02T09:01:50.296Z,1.40
2018-10-02T09:04:18.668Z,1.77
2018-10-02T09:06:47.170Z,1.42
2018-10-02T09:09:15.580Z,1.80
2018-10-02T09:11:43.986Z,1.47
2018-10-02T09:14:12.348Z,1.50
2018-10-02T09:16:41.386Z,1.57
2018-10-02T09:19:09.669Z,1.60
2018-10-02T09:21:38.129Z,1.40
2018-10-02T09:24:06.718Z,1.60
2018-10-02T09:26:35.111Z,1.77
2018-10-02T09:29:03.564Z,1.47
2018-10-02T09:31:37.407Z,1.50
2018-10-02T09:34:11.282Z,1.80
2018-10-02T09:36:45.075Z,1.50
2018-10-02T09:39:18.867Z,1.30
2018-10-02T09:41:52.702Z,1.60
2018-10-02T09:44:21.136Z,1.67
2018-10-02T09:46:49.672Z,1.50
2018-10-02T09:49:19.193Z,1.20
2018-10-02T09:51:47.533Z,1.57
2018-10-02T09:54:15.909Z,1.23
2018-10-02T09:56:45.375Z,1.57
2018-10-02T09:59:15.175Z,1.97
2018-10-02T10:01:49.062Z,1.83
2018-10-02T10:04:18.373Z,1.40
2018-10-02T10:06:46.955Z,1.50
2018-10-02T10:09:15.309Z,1.50
2018-10-02T10:11:43.904Z,1.80
2018-10-02T10:14:12.318Z,1.85
2018-10-02T10:16:40.765Z,1.52
2018-10-02T10:19:09.035Z,1.27
2018-10-02T10:21:41.572Z,1.30
2018-10-02T10:24:09.888Z,1.60
2018-10-02T10:26:38.424Z,1.50
2018-10-02T10:29:06.877Z,1.70
2018-10-02T10:31:35.112Z,1.30
2018-10-02T10:34:03.468Z,1.33
2018-10-02T10:36:31.870Z,1.43
2018-10-02T10:39:01.057Z,1.60
2018-10-02T10:41:29.664Z,1.47
2018-10-02T10:43:58.029Z,1.30
2018-10-02T10:46:26.442Z,1.30
2018-10-02T10:48:54.776Z,1.50
2018-10-02T10:51:23.151Z,1.50
2018-10-02T10:53:51.536Z,1.30
2018-10-02T10:56:19.937Z,1.50
2018-10-02T10:58:48.342Z,1.37
2018-10-02T11:01:16.766Z,1.43
2018-10-02T11:03:45.198Z,1.10
2018-10-02T11:06:13.762Z,1.23
2018-10-02T11:08:42.167Z,1.20
2018-10-02T11:11:10.684Z,1.23
2018-10-02T11:13:39.024Z,1.57
2018-10-02T11:16:07.701Z,1.30
2018-10-02T11:18:36.136Z,1.40
2018-10-02T11:21:04.520Z,1.50
2018-10-02T11:23:32.862Z,1.67
2018-10-02T11:26:01.224Z,1.23
2018-10-02T11:28:29.596Z,1.57
2018-10-02T11:30:57.922Z,1.67
2018-10-02T11:33:26.263Z,1.70
2018-10-02T11:35:54.602Z,1.50
2018-10-02T11:38:22.976Z,1.30
2018-10-02T11:40:51.370Z,1.20
2018-10-02T11:43:19.912Z,1.40
2018-10-02T11:45:48.264Z,1.45
2018-10-02T11:48:16.656Z,1.60
2018-10-02T11:50:45.148Z,1.27
2018-10-02T11:53:13.554Z,1.60
2018-10-02T11:55:42.575Z,1.30
2018-10-02T11:58:10.937Z,1.50
2018-10-02T12:00:40.014Z,1.50
2018-10-02T12:03:08.389Z,1.40
2018-10-02T12:05:36.862Z,1.50
2018-10-02T12:08:06.064Z,1.57
2018-10-02T12:10:34.433Z,1.40
2018-10-02T12:13:03.019Z,1.35
2018-10-02T12:15:31.361Z,1.30
2018-10-02T12:17:59.763Z,1.40
2018-10-02T12:20:28.086Z,1.50
2018-10-02T12:22:56.649Z,1.50
2018-10-02T12:25:25.032Z,1.53
2018-10-02T12:27:53.411Z,1.30
2018-10-02T12:30:21.749Z,1.50
2018-10-02T12:32:50.303Z,1.30
2018-10-02T12:35:18.733Z,1.23
2018-10-02T12:37:47.655Z,1.43
2018-10-02T12:40:16.085Z,1.63
2018-10-02T12:42:44.979Z,1.55
2018-10-02T12:45:13.354Z,1.40
2018-10-02T12:47:41.769Z,1.33
2018-10-02T12:50:10.873Z,1.25
2018-10-02T12:52:39.385Z,1.50
2018-10-02T12:55:07.762Z,1.42
2018-10-02T12:57:36.136Z,1.20
2018-10-02T13:00:05.162Z,1.40
2018-10-02T13:02:33.612Z,1.55
2018-10-02T13:05:01.981Z,1.32
2018-10-02T13:07:30.394Z,1.35
2018-10-02T13:09:58.879Z,1.70
2018-10-02T13:12:27.350Z,1.50
2018-10-02T13:14:55.810Z,1.60
2018-10-02T13:17:24.182Z,1.20
2018-10-02T13:19:52.736Z,1.40
2018-10-02T13:22:21.163Z,1.20
2018-10-02T13:24:49.674Z,1.42
2018-10-02T13:27:18.874Z,1.30
2018-10-02T13:29:47.872Z,1.55
2018-10-02T13:32:16.270Z,1.35
2018-10-02T13:34:44.738Z,1.30
2018-10-02T13:37:13.420Z,1.40
2018-10-02T13:39:41.952Z,1.42
2018-10-02T13:42:10.440Z,1.50
2018-10-02T13:44:39.510Z,1.40
2018-10-02T13:47:07.984Z,1.37
2018-10-02T13:49:37.014Z,1.60
2018-10-02T13:52:05.372Z,1.10
2018-10-02T13:54:33.746Z,1.67
2018-10-02T13:57:02.319Z,1.30
2018-10-02T13:59:31.292Z,1.20
2018-10-02T14:01:59.658Z,1.82
2018-10-02T14:04:28.107Z,1.33
2018-10-02T14:06:56.588Z,1.10
2018-10-02T14:09:25.034Z,1.35
2018-10-02T14:11:54.096Z,1.30
2018-10-02T14:14:22.528Z,1.47
2018-10-02T14:16:50.975Z,1.20
2018-10-02T14:19:19.516Z,1.47
2018-10-02T14:21:47.900Z,1.33
2018-10-02T14:24:16.313Z,1.30
2018-10-02T14:26:44.763Z,1.17
2018-10-02T14:29:13.264Z,1.50
2018-10-02T14:31:41.604Z,1.30
2018-10-02T14:34:10.095Z,1.23
2018-10-02T14:36:38.526Z,1.00
2018-10-02T14:39:08.269Z,1.20
2018-10-02T14:41:36.842Z,1.37
2018-10-02T14:44:05.415Z,1.45
2018-10-02T14:46:33.824Z,1.63
2018-10-02T14:49:03.007Z,1.62
2018-10-02T14:51:31.461Z,1.30
2018-10-02T14:54:00.397Z,1.17
2018-10-02T14:56:28.775Z,1.40
2018-10-02T14:58:57.097Z,1.40
2018-10-02T15:01:25.506Z,1.27
2018-10-02T15:03:53.847Z,1.20
2018-10-02T15:06:22.172Z,1.30
2018-10-02T15:08:51.773Z,1.37
2018-10-02T15:11:20.093Z,1.27
2018-10-02T15:13:48.604Z,1.27
2018-10-02T15:16:16.987Z,1.50
2018-10-02T15:18:45.399Z,1.03
2018-10-02T15:21:13.962Z,1.60
2018-10-02T15:23:42.285Z,1.40
2018-10-02T15:26:10.647Z,1.63
2018-10-02T15:28:38.994Z,1.40
2018-10-02T15:31:07.975Z,1.17
2018-10-02T15:33:36.337Z,1.23
2018-10-02T15:36:04.709Z,1.50
2018-10-02T15:38:33.099Z,1.30
2018-10-02T15:41:01.572Z,1.07
2018-10-02T15:43:30.704Z,1.10
2018-10-02T15:45:59.088Z,1.10
2018-10-02T15:48:27.466Z,1.40
2018-10-02T15:50:55.905Z,1.47
2018-10-02T15:53:24.688Z,1.40
2018-10-02T15:55:53.119Z,1.30
2018-10-02T15:58:21.453Z,1.30
2018-10-02T16:00:50.176Z,1.27
2018-10-02T16:03:18.755Z,1.37
2018-10-02T16:05:47.198Z,1.10
2018-10-02T16:08:15.612Z,1.50
2018-10-02T16:10:44.100Z,1.30
2018-10-02T16:13:12.453Z,1.20
2018-10-02T16:15:40.802Z,1.23
2018-10-02T16:18:09.415Z,1.27
2018-10-02T16:20:37.775Z,1.30
2018-10-02T16:23:06.164Z,1.10
2018-10-02T16:25:34.490Z,1.40
2018-10-02T16:28:02.954Z,1.23
2018-10-02T16:30:31.399Z,1.13
2018-10-02T16:32:59.780Z,1.20
2018-10-02T16:35:28.146Z,1.50
2018-10-02T16:37:56.496Z,1.60
2018-10-02T16:40:24.972Z,1.00
2018-10-02T16:42:53.307Z,1.10
2018-10-02T16:45:21.637Z,1.03
2018-10-02T16:47:50.582Z,1.27
2018-10-02T16:50:18.888Z,1.43
2018-10-02T16:52:47.241Z,1.23
2018-10-02T16:55:15.730Z,1.23
2018-10-02T16:57:44.029Z,1.30
2018-10-02T17:00:12.565Z,1.43
2018-10-02T17:02:40.895Z,1.10
2018-10-02T17:05:09.393Z,1.37
2018-10-02T17:07:37.751Z,1.00
2018-10-02T17:10:06.415Z,1.40
2018-10-02T17:12:34.756Z,1.33
2018-10-02T17:15:03.273Z,1.10
2018-10-02T17:17:31.613Z,1.45
2018-10-02T17:20:00.089Z,1.40
2018-10-02T17:22:28.553Z,1.20
2018-10-02T17:24:56.975Z,1.33
2018-10-02T17:27:25.368Z,1.20
2018-10-02T17:29:53.791Z,1.20
2018-10-02T17:32:22.184Z,1.02
2018-10-02T17:34:50.592Z,1.20
2018-10-02T17:37:18.979Z,1.10
2018-10-02T17:39:47.914Z,1.37
2018-10-02T17:42:16.423Z,1.40
2018-10-02T17:44:45.381Z,1.50
2018-10-02T17:47:13.874Z,1.27
2018-10-02T17:49:42.193Z,1.55
2018-10-02T17:52:11.495Z,1.40
2018-10-02T17:54:39.961Z,1.25
2018-10-02T17:57:08.966Z,1.30
2018-10-02T17:59:37.322Z,1.37
2018-10-02T18:02:05.714Z,1.23
2018-10-02T18:04:34.088Z,1.33
2018-10-02T18:07:02.450Z,1.00
2018-10-02T18:09:30.805Z,1.30
2018-10-02T18:11:59.170Z,1.40
2018-10-02T18:14:27.670Z,1.20
2018-10-02T18:16:56.121Z,1.30
2018-10-02T18:19:24.490Z,1.63
2018-10-02T18:21:52.981Z,1.32
2018-10-02T18:24:21.490Z,1.30
2018-10-02T18:26:50.006Z,0.93
2018-10-02T18:29:18.594Z,1.25
2018-10-02T18:31:47.066Z,1.12
2018-10-02T18:34:15.590Z,1.50
2018-10-02T18:36:44.163Z,1.50
2018-10-02T18:39:16.547Z,1.10
2018-10-02T18:41:44.880Z,1.20
2018-10-02T18:44:13.443Z,1.30
2018-10-02T18:46:41.893Z,1.40
2018-10-02T18:49:10.385Z,1.40
2018-10-02T18:51:38.769Z,1.25
2018-10-02T18:54:07.180Z,1.20
2018-10-02T18:56:36.329Z,1.63
2018-10-02T18:59:04.645Z,1.45
2018-10-02T19:01:33.042Z,1.12
2018-10-02T19:04:01.843Z,1.10
2018-10-02T19:06:30.216Z,1.40
2018-10-02T19:09:03.857Z,1.25
2018-10-02T19:11:37.632Z,1.53
2018-10-02T19:14:06.007Z,1.23
2018-10-02T19:16:35.534Z,1.63
2018-10-02T19:19:03.996Z,1.30
2018-10-02T19:21:32.423Z,1.27
2018-10-02T19:24:00.755Z,1.40
2018-10-02T19:26:29.895Z,1.32
2018-10-02T19:28:58.373Z,1.40
2018-10-02T19:31:32.204Z,1.43
2018-10-02T19:34:01.057Z,1.60
2018-10-02T19:36:29.945Z,1.40
2018-10-02T19:39:06.506Z,1.60
2018-10-02T19:41:34.972Z,1.60
2018-10-02T19:44:03.471Z,1.50
2018-10-02T19:46:37.140Z,1.70
2018-10-02T19:49:05.567Z,1.47
2018-10-02T19:51:39.429Z,1.13
2018-10-02T19:54:07.837Z,1.55
2018-10-02T19:56:36.216Z,1.43
2018-10-02T19:59:04.583Z,1.50
2018-10-02T20:01:33.137Z,1.30
2018-10-02T20:04:02.277Z,1.60
2018-10-02T20:06:30.619Z,1.43
2018-10-02T20:08:59.163Z,1.60
2018-10-02T20:11:27.494Z,1.73
2018-10-02T20:13:55.910Z,2.00
2018-10-02T20:16:24.351Z,1.27
2018-10-02T20:18:54.306Z,1.77
2018-10-02T20:21:22.793Z,1.47
2018-10-02T20:23:51.115Z,1.33
2018-10-02T20:26:19.523Z,1.33
2018-10-02T20:28:48.012Z,1.60
2018-10-02T20:31:17.061Z,1.10
2018-10-02T20:33:45.490Z,1.57
2018-10-02T20:36:14.556Z,1.60
2018-10-02T20:38:43.092Z,1.33
2018-10-02T20:41:11.592Z,1.40
2018-10-02T20:43:40.603Z,1.40
2018-10-02T20:46:09.147Z,1.20
2018-10-02T20:48:37.744Z,1.60
2018-10-02T20:51:06.365Z,1.43
2018-10-02T20:53:34.906Z,1.40
2018-10-02T20:56:03.466Z,1.30
2018-10-02T20:58:31.859Z,1.20
2018-10-02T21:01:00.198Z,1.52
2018-10-02T21:03:28.598Z,1.50
2018-10-02T21:05:57.117Z,1.50
2018-10-02T21:08:25.591Z,1.55
2018-10-02T21:10:54.019Z,1.63
2018-10-02T21:13:22.595Z,1.47
2018-10-02T21:15:51.139Z,1.40
2018-10-02T21:18:20.893Z,1.32
2018-10-02T21:20:49.355Z,1.30
2018-10-02T21:23:17.782Z,1.40
2018-10-02T21:25:46.755Z,1.47
2018-10-02T21:28:15.143Z,1.40
2018-10-02T21:30:43.504Z,1.80
2018-10-02T21:33:12.389Z,1.57
2018-10-02T21:35:40.769Z,1.30
2018-10-02T21:38:09.237Z,1.70
2018-10-02T21:40:37.622Z,1.40
2018-10-02T21:43:06.720Z,1.40
2018-10-02T21:45:35.186Z,1.50
2018-10-02T21:48:03.622Z,1.60
2018-10-02T21:50:32.072Z,1.53
2018-10-02T21:53:01.081Z,1.57
2018-10-02T21:55:29.858Z,1.77
2018-10-02T21:57:58.354Z,1.62
2018-10-02T22:00:28.700Z,1.60
2018-10-02T22:02:57.144Z,1.50
2018-10-02T22:05:25.539Z,1.60
2018-10-02T22:07:53.899Z,1.50
2018-10-02T22:10:22.399Z,1.75
2018-10-02T22:12:50.771Z,1.53
2018-10-02T22:15:19.183Z,1.47
2018-10-02T22:17:47.658Z,1.55
2018-10-02T22:20:16.212Z,1.70
2018-10-02T22:22:44.531Z,1.30
2018-10-02T22:25:12.891Z,1.60
2018-10-02T22:27:41.289Z,1.55
2018-10-02T22:30:12.473Z,1.70
2018-10-02T22:32:40.943Z,1.50
2018-10-02T22:35:09.365Z,1.03
2018-10-02T22:37:37.803Z,1.67
2018-10-02T22:40:06.199Z,1.43
2018-10-02T22:42:34.533Z,1.40
2018-10-02T22:45:03.167Z,1.50
2018-10-02T22:47:31.751Z,1.50
2018-10-02T22:50:00.680Z,1.50
2018-10-02T22:52:29.101Z,1.47
2018-10-02T22:54:57.493Z,1.67
2018-10-02T22:57:25.914Z,1.33
2018-10-02T22:59:54.294Z,1.60
2018-10-02T23:02:22.640Z,1.75
2018-10-02T23:04:51.719Z,1.67
2018-10-02T23:07:20.213Z,1.70
2018-10-02T23:09:48.763Z,1.27
2018-10-02T23:12:17.101Z,1.37
2018-10-02T23:14:45.504Z,1.50
2018-10-02T23:17:13.911Z,1.20
2018-10-02T23:19:42.482Z,1.20
2018-10-02T23:22:10.930Z,1.57
2018-10-02T23:24:39.780Z,1.17
2018-10-02T23:27:08.153Z,1.40
2018-10-02T23:29:36.598Z,1.60
2018-10-02T23:32:04.922Z,1.50
2018-10-02T23:34:33.437Z,1.30
2018-10-02T23:37:02.431Z,1.53
2018-10-02T23:39:30.748Z,1.27
2018-10-02T23:41:59.085Z,1.23
2018-10-02T23:44:27.422Z,1.43
2018-10-02T23:46:55.875Z,1.22
2018-10-02T23:49:24.222Z,1.20
2018-10-02T23:51:53.182Z,1.27
2018-10-02T23:54:21.517Z,1.32
2018-10-02T23:56:49.969Z,1.30
2018-10-02T23:59:18.799Z,1.30
